Time;durP1;ratioP1;P1;durP2;ratioP2;P2;SDS_P1;SDS_P2;PMS_P1;PMS_P2;Temp;Humidity;BMP_temperature;BMP_pressure;BME280_temperature;BME280_humidity;BME280_pressure;Samples;Min_cycle;Max_cycle;Signal;HPM_P1;HPM_P2
2021/11/15 00:01:29;;;;;;;20.00;15.23;;;10.30;99.90;;;;;;4993932;28;20439;-88
2021/11/15 00:03:56;;;;;;;22.87;15.80;;;10.30;99.90;;;;;;4991039;28;20455;-88
2021/11/15 00:06:25;;;;;;;19.93;14.20;;;10.30;99.90;;;;;;5001351;28;20448;-87
2021/11/15 00:08:52;;;;;;;17.53;13.40;;;10.30;99.90;;;;;;4985795;28;20514;-89
2021/11/15 00:11:19;;;;;;;19.83;15.30;;;10.30;99.90;;;;;;4998566;28;20474;-88
2021/11/15 00:13:47;;;;;;;18.50;13.60;;;10.30;99.90;;;;;;4983792;28;20475;-88
2021/11/15 00:16:13;;;;;;;18.33;13.13;;;10.30;99.90;;;;;;4990124;28;20471;-88
2021/11/15 00:18:40;;;;;;;20.53;15.03;;;10.20;99.90;;;;;;4989513;28;20518;-88
2021/11/15 00:21:07;;;;;;;20.87;15.07;;;10.20;99.90;;;;;;4973022;28;20454;-88
2021/11/15 00:23:35;;;;;;;18.60;13.40;;;10.20;99.90;;;;;;4987627;28;20475;-89
2021/11/15 00:26:02;;;;;;;20.57;14.30;;;10.20;99.90;;;;;;4984067;28;20457;-89
2021/11/15 00:28:29;;;;;;;22.60;14.37;;;10.20;99.90;;;;;;4977950;28;20451;-89
2021/11/15 00:30:56;;;;;;;19.37;14.27;;;10.20;99.90;;;;;;4983772;28;20448;-88
2021/11/15 00:33:23;;;;;;;17.10;13.30;;;10.30;99.90;;;;;;4980084;28;20474;-88
2021/11/15 00:35:50;;;;;;;19.13;14.20;;;10.20;99.90;;;;;;4985118;28;20476;-88
2021/11/15 00:38:19;;;;;;;19.00;14.40;;;10.30;99.90;;;;;;4978279;28;20894;-89
2021/11/15 00:40:47;;;;;;;17.43;11.83;;;10.30;99.90;;;;;;4979869;28;20971;-88
2021/11/15 00:43:14;;;;;;;17.30;13.37;;;10.30;99.90;;;;;;4978884;28;20453;-88
2021/11/15 00:45:41;;;;;;;19.60;14.07;;;10.30;99.90;;;;;;4988382;28;20881;-89
2021/11/15 00:48:09;;;;;;;18.17;13.00;;;10.20;99.90;;;;;;4983248;28;20467;-89
2021/11/15 00:50:37;;;;;;;16.83;12.23;;;10.10;99.90;;;;;;4982433;28;20813;-88
2021/11/15 00:53:04;;;;;;;18.30;13.10;;;10.00;99.90;;;;;;4970041;28;20471;-88
2021/11/15 00:55:32;;;;;;;14.50;11.67;;;10.00;99.90;;;;;;4980827;28;20487;-88
2021/11/15 00:58:01;;;;;;;16.73;12.63;;;10.00;99.90;;;;;;4984064;28;20448;-89
2021/11/15 01:00:30;;;;;;;17.60;12.43;;;9.90;99.90;;;;;;4978045;28;20436;-89
2021/11/15 01:02:59;;;;;;;16.13;12.87;;;9.90;99.90;;;;;;4982731;28;20472;-88
2021/11/15 01:05:27;;;;;;;16.33;12.27;;;9.90;99.90;;;;;;4984440;28;20439;-88
2021/11/15 01:07:54;;;;;;;17.20;11.60;;;9.90;99.90;;;;;;4979776;28;20483;-87
2021/11/15 01:10:22;;;;;;;15.90;12.70;;;9.90;99.90;;;;;;4987621;28;20448;-88
2021/11/15 01:12:49;;;;;;;17.20;12.80;;;10.00;99.90;;;;;;4984789;28;20438;-87
2021/11/15 01:15:20;;;;;;;15.53;11.40;;;10.00;99.90;;;;;;4999892;28;20478;-88
2021/11/15 01:17:47;;;;;;;20.67;12.93;;;10.00;99.90;;;;;;4993778;28;20625;-88
2021/11/15 01:20:16;;;;;;;18.33;12.30;;;9.90;99.90;;;;;;4994746;28;20455;-88
2021/11/15 01:22:43;;;;;;;16.13;11.97;;;10.00;99.90;;;;;;4990066;28;20458;-88
2021/11/15 01:25:10;;;;;;;18.60;13.43;;;10.00;99.90;;;;;;4988243;28;20454;-89
2021/11/15 01:27:38;;;;;;;14.67;11.67;;;9.90;99.90;;;;;;4992217;28;20462;-88
2021/11/15 01:30:07;;;;;;;16.40;10.97;;;9.90;99.90;;;;;;4991619;28;20458;-90
2021/11/15 01:32:35;;;;;;;16.07;10.80;;;9.90;99.90;;;;;;4995828;28;20459;-90
2021/11/15 01:35:02;;;;;;;17.23;10.30;;;9.90;99.90;;;;;;4993654;28;20444;-87
2021/11/15 01:37:29;;;;;;;17.20;12.13;;;9.90;99.90;;;;;;4997762;28;20809;-88
2021/11/15 01:39:56;;;;;;;15.10;10.53;;;9.90;99.90;;;;;;4987610;28;20936;-88
2021/11/15 01:42:23;;;;;;;14.60;11.00;;;9.90;99.90;;;;;;4990327;28;20446;-88
2021/11/15 01:44:50;;;;;;;13.00;9.77;;;9.90;99.90;;;;;;4993835;28;20471;-89
2021/11/15 01:47:17;;;;;;;14.60;11.37;;;9.80;99.90;;;;;;4988878;28;20660;-88
2021/11/15 01:49:45;;;;;;;13.93;10.13;;;9.70;99.90;;;;;;4991811;28;20451;-88
2021/11/15 01:52:12;;;;;;;13.13;9.20;;;9.70;99.90;;;;;;5002182;28;20443;-89
2021/11/15 01:54:39;;;;;;;13.17;10.13;;;9.70;99.90;;;;;;5001491;28;20520;-88
2021/11/15 01:57:07;;;;;;;14.53;10.77;;;9.70;99.90;;;;;;4996395;28;20475;-88
2021/11/15 01:59:34;;;;;;;12.20;9.20;;;9.70;99.90;;;;;;4997922;28;20455;-88
2021/11/15 02:02:01;;;;;;;13.20;11.27;;;9.60;99.90;;;;;;4987347;28;20443;-88
2021/11/15 02:04:28;;;;;;;14.23;9.40;;;9.60;99.90;;;;;;4990094;28;20460;-88
2021/11/15 02:06:56;;;;;;;15.03;10.90;;;9.60;99.90;;;;;;4991410;28;20452;-87
2021/11/15 02:09:24;;;;;;;15.03;10.67;;;9.60;99.90;;;;;;4994691;28;20526;-89
2021/11/15 02:11:51;;;;;;;13.70;10.00;;;9.60;99.90;;;;;;4984560;28;20533;-87
2021/11/15 02:14:18;;;;;;;12.13;9.17;;;9.50;99.90;;;;;;4992764;28;20522;-89
2021/11/15 02:16:45;;;;;;;18.47;12.50;;;9.40;99.90;;;;;;4978464;28;20841;-89
2021/11/15 02:19:12;;;;;;;14.87;10.07;;;9.30;99.90;;;;;;4985315;28;20449;-90
2021/11/15 02:21:40;;;;;;;14.50;10.00;;;9.30;99.90;;;;;;4976610;28;20944;-89
2021/11/15 02:24:06;;;;;;;16.83;10.10;;;9.40;99.90;;;;;;4988001;28;20991;-89
2021/11/15 02:26:33;;;;;;;17.20;10.37;;;9.30;99.90;;;;;;4986162;28;20455;-89
2021/11/15 02:29:00;;;;;;;14.00;10.10;;;9.30;99.90;;;;;;4999561;28;20454;-89
2021/11/15 02:31:28;;;;;;;12.30;10.40;;;9.30;99.90;;;;;;4993855;28;20531;-89
2021/11/15 02:33:57;;;;;;;11.67;8.90;;;9.30;99.90;;;;;;4995431;28;20468;-89
2021/11/15 02:36:27;;;;;;;14.07;10.03;;;9.20;99.90;;;;;;5004460;28;20474;-90
2021/11/15 02:38:55;;;;;;;15.23;10.83;;;9.20;99.90;;;;;;4995659;28;20856;-89
2021/11/15 02:41:24;;;;;;;11.40;9.57;;;9.30;99.90;;;;;;4982803;28;20452;-90
2021/11/15 02:43:51;;;;;;;14.60;10.73;;;9.30;99.90;;;;;;4993697;28;20510;-89
2021/11/15 02:46:18;;;;;;;12.00;9.87;;;9.20;99.90;;;;;;4984769;28;21788;-89
2021/11/15 02:48:45;;;;;;;15.13;11.90;;;9.30;99.90;;;;;;4987995;28;20541;-89
2021/11/15 02:51:13;;;;;;;15.07;10.60;;;9.30;99.90;;;;;;4994295;28;20539;-89
2021/11/15 02:53:40;;;;;;;14.77;10.17;;;9.30;99.90;;;;;;4983826;28;20485;-88
2021/11/15 02:56:08;;;;;;;16.57;10.90;;;9.30;99.90;;;;;;4994258;28;20820;-89
2021/11/15 02:58:35;;;;;;;15.00;12.17;;;9.30;99.90;;;;;;4990214;28;20514;-89
2021/11/15 03:01:05;;;;;;;13.40;10.33;;;9.30;99.90;;;;;;4989792;28;20459;-88
2021/11/15 03:03:32;;;;;;;16.00;12.00;;;9.20;99.90;;;;;;4995286;28;20550;-89
2021/11/15 03:05:59;;;;;;;15.00;11.43;;;9.20;99.90;;;;;;4984032;28;20843;-89
2021/11/15 03:08:27;;;;;;;14.63;11.97;;;9.30;99.90;;;;;;4991997;28;20459;-89
2021/11/15 03:10:58;;;;;;;17.77;13.00;;;9.30;99.90;;;;;;4980472;28;20985;-89
2021/11/15 03:13:29;;;;;;;19.10;14.63;;;9.40;99.90;;;;;;4989495;28;20475;-89
2021/11/15 03:15:56;;;;;;;26.00;15.00;;;9.50;99.90;;;;;;4989065;28;20491;-88
2021/11/15 03:18:25;;;;;;;18.87;14.63;;;9.50;99.90;;;;;;4999259;28;20444;-89
2021/11/15 03:20:54;;;;;;;20.80;15.47;;;9.50;99.90;;;;;;4994499;28;20439;-89
2021/11/15 03:23:23;;;;;;;20.03;16.50;;;9.60;99.90;;;;;;4984996;28;20459;-89
2021/11/15 03:25:51;;;;;;;24.67;15.10;;;9.60;99.90;;;;;;4986534;28;20448;-89
2021/11/15 03:28:20;;;;;;;23.77;16.77;;;9.60;99.90;;;;;;4984245;28;20498;-88
2021/11/15 03:30:51;;;;;;;22.60;15.43;;;9.60;99.90;;;;;;4986458;28;20543;-89
2021/11/15 03:33:18;;;;;;;21.20;15.67;;;9.60;99.90;;;;;;4993096;28;20479;-89
2021/11/15 03:35:45;;;;;;;21.87;16.00;;;9.60;99.90;;;;;;4991421;28;20483;-89
2021/11/15 03:38:12;;;;;;;23.37;15.73;;;9.70;99.90;;;;;;4988684;28;20476;-90
2021/11/15 03:40:39;;;;;;;22.03;15.93;;;9.70;99.90;;;;;;4992628;28;20466;-90
2021/11/15 03:43:07;;;;;;;21.50;15.90;;;9.70;99.90;;;;;;4989302;28;20466;-89
2021/11/15 03:45:36;;;;;;;19.60;14.00;;;9.70;99.90;;;;;;4986031;28;20781;-89
2021/11/15 03:48:05;;;;;;;17.43;14.03;;;9.60;99.90;;;;;;4984634;28;20509;-89
2021/11/15 03:50:33;;;;;;;19.07;13.17;;;9.40;99.90;;;;;;4989852;28;20439;-89
2021/11/15 03:53:01;;;;;;;19.70;13.30;;;9.50;99.90;;;;;;5002075;28;20472;-90
2021/11/15 03:55:28;;;;;;;17.70;14.10;;;9.30;99.90;;;;;;4999793;28;20429;-88
2021/11/15 03:57:55;;;;;;;22.43;15.10;;;9.40;99.90;;;;;;5005364;28;20471;-90
2021/11/15 04:00:26;;;;;;;19.27;14.00;;;9.40;99.90;;;;;;4992371;28;20435;-88
2021/11/15 04:03:01;;;;;;;21.50;14.80;;;9.50;99.90;;;;;;4984890;28;20472;-89
2021/11/15 04:05:32;;;;;;;17.60;13.50;;;9.50;99.90;;;;;;4979293;28;20447;-89
2021/11/15 04:08:02;;;;;;;18.23;13.63;;;9.60;99.90;;;;;;4987197;28;20551;-89
2021/11/15 04:10:32;;;;;;;25.50;15.53;;;9.60;99.90;;;;;;4989982;28;20463;-90
2021/11/15 04:13:01;;;;;;;22.43;14.20;;;9.60;99.90;;;;;;4986162;28;20468;-89
2021/11/15 04:15:28;;;;;;;17.03;13.23;;;9.60;99.90;;;;;;4976997;28;20451;-89
2021/11/15 04:20:45;;;;;;;21.23;13.60;;;9.50;99.90;;;;;;4973062;28;20438;-88
2021/11/15 04:23:12;;;;;;;21.13;13.50;;;9.60;99.90;;;;;;4989856;28;20481;-89
2021/11/15 04:25:40;;;;;;;20.43;14.13;;;9.60;99.90;;;;;;4989469;28;20459;-89
2021/11/15 04:28:08;;;;;;;21.20;14.30;;;9.60;99.90;;;;;;4984934;28;20455;-89
2021/11/15 04:30:35;;;;;;;18.77;13.30;;;9.50;99.90;;;;;;4983742;28;20455;-89
2021/11/15 04:33:04;;;;;;;20.07;14.03;;;9.30;99.90;;;;;;4988367;28;20500;-89
2021/11/15 04:35:31;;;;;;;19.30;13.43;;;9.20;99.90;;;;;;4982333;28;20479;-89
2021/11/15 04:38:00;;;;;;;17.37;13.80;;;9.10;99.90;;;;;;4985828;28;20479;-89
2021/11/15 04:40:28;;;;;;;17.60;14.07;;;9.10;99.90;;;;;;4981615;28;20447;-89
2021/11/15 04:42:55;;;;;;;19.50;14.37;;;9.10;99.90;;;;;;4984615;28;20562;-88
2021/11/15 04:45:22;;;;;;;18.23;12.40;;;9.00;99.90;;;;;;4992081;28;20454;-88
2021/11/15 04:47:49;;;;;;;19.40;13.70;;;8.90;99.90;;;;;;5017551;28;20470;-89
2021/11/15 04:50:17;;;;;;;19.53;12.80;;;9.00;99.90;;;;;;4999392;28;20438;-90
2021/11/15 04:52:44;;;;;;;15.30;13.30;;;8.90;99.90;;;;;;4998932;28;20522;-90
2021/11/15 04:55:16;;;;;;;15.07;11.90;;;9.00;99.90;;;;;;5031863;23;20505;-90
2021/11/15 04:57:43;;;;;;;14.90;12.50;;;9.00;99.90;;;;;;4997772;28;20489;-89
2021/11/15 05:00:14;;;;;;;17.87;12.43;;;9.00;99.90;;;;;;4990038;28;20443;-89
2021/11/15 05:02:41;;;;;;;18.17;13.43;;;9.00;99.90;;;;;;4997915;28;20454;-89
2021/11/15 05:05:08;;;;;;;19.87;12.77;;;8.90;99.90;;;;;;4987557;28;20473;-89
2021/11/15 05:07:35;;;;;;;19.90;13.70;;;9.00;99.90;;;;;;4989573;28;20439;-89
2021/11/15 05:10:03;;;;;;;17.40;12.60;;;8.90;99.90;;;;;;4981948;28;20483;-89
2021/11/15 05:12:35;;;;;;;15.47;11.40;;;8.90;99.90;;;;;;4984574;28;20456;-90
2021/11/15 05:15:04;;;;;;;16.80;11.40;;;8.90;99.90;;;;;;4982356;28;20494;-91
2021/11/15 05:17:31;;;;;;;17.87;13.23;;;8.90;99.90;;;;;;4984952;28;20474;-90
2021/11/15 05:19:58;;;;;;;15.07;12.17;;;9.10;99.90;;;;;;4986380;28;20452;-89
2021/11/15 05:22:25;;;;;;;14.60;12.30;;;9.10;99.90;;;;;;4970950;28;20425;-90
2021/11/15 05:24:51;;;;;;;15.27;12.00;;;9.20;99.90;;;;;;4999610;28;20448;-91
2021/11/15 05:27:18;;;;;;;13.17;10.83;;;9.20;99.90;;;;;;5009324;28;20435;-90
2021/11/15 05:29:47;;;;;;;19.30;13.70;;;9.10;99.90;;;;;;4984110;28;20504;-89
2021/11/15 05:32:13;;;;;;;14.83;9.70;;;9.20;99.90;;;;;;5000300;28;20512;-90
2021/11/15 05:34:40;;;;;;;15.63;12.40;;;9.20;99.90;;;;;;4999030;28;20460;-89
2021/11/15 05:37:07;;;;;;;14.00;10.80;;;9.20;99.90;;;;;;4984062;28;20481;-90
2021/11/15 05:39:34;;;;;;;17.67;12.50;;;9.20;99.90;;;;;;4985961;28;20455;-91
2021/11/15 05:42:01;;;;;;;17.70;11.70;;;9.20;99.90;;;;;;4983959;28;20460;-90
2021/11/15 05:44:28;;;;;;;16.47;12.03;;;9.30;99.90;;;;;;5001588;28;20463;-91
2021/11/15 05:46:56;;;;;;;14.97;10.83;;;9.30;99.90;;;;;;5000986;28;20471;-89
2021/11/15 05:49:23;;;;;;;14.40;10.60;;;9.30;99.90;;;;;;4998874;28;20451;-90
2021/11/15 05:51:50;;;;;;;15.10;11.60;;;9.40;99.90;;;;;;4987781;28;20444;-89
2021/11/15 05:54:20;;;;;;;14.20;11.77;;;9.30;99.90;;;;;;5015750;28;20471;-90
2021/11/15 05:56:47;;;;;;;29.80;11.07;;;9.30;99.90;;;;;;4991954;28;20563;-90
2021/11/15 05:59:14;;;;;;;16.97;12.57;;;9.20;99.90;;;;;;4989692;28;20442;-91
2021/11/15 06:01:43;;;;;;;17.90;11.23;;;9.10;99.90;;;;;;4989086;28;20446;-90
2021/11/15 06:04:21;;;;;;;15.13;11.03;;;9.10;99.90;;;;;;4986842;28;20466;-90
2021/11/15 06:06:49;;;;;;;16.00;10.93;;;9.10;99.90;;;;;;4984593;28;20468;-90
2021/11/15 06:09:17;;;;;;;13.60;10.27;;;9.10;99.90;;;;;;4990625;28;20452;-89
2021/11/15 06:11:44;;;;;;;13.40;10.87;;;9.10;99.90;;;;;;4991083;28;20542;-90
2021/11/15 06:14:11;;;;;;;13.80;10.37;;;9.10;99.90;;;;;;4988235;28;20539;-91
2021/11/15 06:16:39;;;;;;;14.20;12.30;;;9.10;99.90;;;;;;4993981;28;20487;-90
2021/11/15 06:19:09;;;;;;;15.03;12.47;;;9.10;99.90;;;;;;4992295;28;20470;-90
2021/11/15 06:21:38;;;;;;;14.23;10.80;;;9.00;99.90;;;;;;4990961;28;20853;-91
2021/11/15 06:24:06;;;;;;;16.87;12.30;;;9.00;99.90;;;;;;4990131;28;20471;-91
2021/11/15 06:26:33;;;;;;;16.40;12.40;;;9.10;99.90;;;;;;4994105;28;20469;-90
2021/11/15 06:29:00;;;;;;;14.13;10.63;;;9.10;99.90;;;;;;4996620;28;20949;-89
2021/11/15 06:31:27;;;;;;;15.63;11.13;;;9.20;99.90;;;;;;5000019;28;20507;-89
2021/11/15 06:33:53;;;;;;;16.30;11.27;;;9.20;99.90;;;;;;5001098;28;20514;-91
2021/11/15 06:36:23;;;;;;;12.80;10.10;;;9.20;99.90;;;;;;5014700;28;20466;-92
2021/11/15 06:38:53;;;;;;;15.83;11.83;;;9.20;99.90;;;;;;5007631;28;21282;-89
2021/11/15 06:41:21;;;;;;;17.93;11.63;;;9.20;99.90;;;;;;4990819;28;20456;-90
2021/11/15 06:43:48;;;;;;;11.90;9.87;;;9.20;99.90;;;;;;4991025;28;20475;-89
2021/11/15 06:46:15;;;;;;;16.70;11.73;;;9.20;99.90;;;;;;4998496;28;20454;-91
2021/11/15 06:48:48;;;;;;;13.70;10.57;;;9.20;99.90;;;;;;5005754;28;20463;-89
2021/11/15 06:51:14;;;;;;;17.13;13.13;;;9.20;99.90;;;;;;4989313;28;20529;-90
2021/11/15 06:53:44;;;;;;;16.57;11.70;;;9.20;99.90;;;;;;4986679;28;20471;-90
2021/11/15 06:56:13;;;;;;;17.20;11.60;;;9.20;99.90;;;;;;4985126;28;20465;-89
2021/11/15 06:58:40;;;;;;;14.47;11.53;;;9.20;99.90;;;;;;4989968;28;20482;-90
2021/11/15 07:01:07;;;;;;;15.00;11.70;;;9.10;99.90;;;;;;4983592;28;20479;-90
2021/11/15 07:03:34;;;;;;;14.60;10.57;;;9.20;99.90;;;;;;4988296;28;20475;-89
2021/11/15 07:06:01;;;;;;;17.27;13.20;;;9.20;99.90;;;;;;4978391;28;20662;-89
2021/11/15 07:08:29;;;;;;;15.20;11.17;;;9.10;99.90;;;;;;4976015;28;20449;-85
2021/11/15 07:10:57;;;;;;;16.70;12.77;;;9.20;99.90;;;;;;4977592;28;20499;-89
2021/11/15 07:13:25;;;;;;;14.40;10.67;;;9.20;99.90;;;;;;4985990;28;20504;-89
2021/11/15 07:15:54;;;;;;;24.10;15.10;;;9.10;99.90;;;;;;4979219;28;20455;-90
2021/11/15 07:18:21;;;;;;;17.07;11.57;;;9.10;99.90;;;;;;4987802;28;20479;-90
2021/11/15 07:20:47;;;;;;;16.20;11.70;;;9.10;99.90;;;;;;4990405;28;20450;-91
2021/11/15 07:23:16;;;;;;;15.87;12.53;;;9.20;99.90;;;;;;4989017;28;20503;-91
2021/11/15 07:25:43;;;;;;;15.40;12.13;;;9.20;99.90;;;;;;4999182;28;20452;-90
2021/11/15 07:28:11;;;;;;;18.47;12.33;;;9.30;99.90;;;;;;4983970;28;20451;-89
2021/11/15 07:30:40;;;;;;;14.77;11.83;;;9.20;99.90;;;;;;4997170;28;20477;-90
2021/11/15 07:33:10;;;;;;;16.87;12.97;;;9.20;99.90;;;;;;4990099;28;20588;-90
2021/11/15 07:35:38;;;;;;;15.47;12.07;;;9.30;99.90;;;;;;4990797;28;20440;-90
2021/11/15 07:38:05;;;;;;;15.80;11.40;;;9.30;99.90;;;;;;4989252;28;20491;-89
2021/11/15 07:40:35;;;;;;;19.90;13.57;;;9.30;99.90;;;;;;4990341;28;20936;-90
2021/11/15 07:43:02;;;;;;;17.10;13.17;;;9.40;99.90;;;;;;4990750;28;20424;-91
2021/11/15 07:45:28;;;;;;;16.97;12.83;;;9.40;99.90;;;;;;4998285;28;20482;-91
2021/11/15 07:47:57;;;;;;;18.20;14.00;;;9.40;99.90;;;;;;4983780;28;20567;-90
2021/11/15 07:50:24;;;;;;;16.93;12.17;;;9.40;99.90;;;;;;4985766;28;20452;-90
2021/11/15 07:52:51;;;;;;;16.20;13.40;;;9.30;99.90;;;;;;4984937;28;20452;-90
2021/11/15 07:55:19;;;;;;;21.23;11.43;;;9.30;99.90;;;;;;4995717;28;20500;-90
2021/11/15 07:57:46;;;;;;;20.80;13.20;;;9.30;99.90;;;;;;4988557;28;20472;-89
2021/11/15 08:00:17;;;;;;;16.87;12.80;;;9.40;99.90;;;;;;4983599;28;20452;-90
2021/11/15 08:02:45;;;;;;;17.70;12.47;;;9.50;99.90;;;;;;4976171;28;20448;-90
2021/11/15 08:05:16;;;;;;;16.70;11.63;;;9.50;99.90;;;;;;4990256;28;20464;-91
2021/11/15 08:07:44;;;;;;;16.50;11.67;;;9.50;99.90;;;;;;4984378;28;20454;-90
2021/11/15 08:10:13;;;;;;;18.80;12.83;;;9.50;99.90;;;;;;5005823;28;20447;-90
2021/11/15 08:12:44;;;;;;;19.90;11.97;;;9.50;99.90;;;;;;4993742;28;20451;-90
2021/11/15 08:15:15;;;;;;;15.33;11.50;;;9.20;99.90;;;;;;4986955;28;20550;-89
2021/11/15 08:17:48;;;;;;;17.57;13.27;;;9.30;99.90;;;;;;4988210;28;20475;-88
2021/11/15 08:20:22;;;;;;;17.40;11.97;;;9.40;99.90;;;;;;4986696;28;20449;-90
2021/11/15 08:22:54;;;;;;;16.87;12.93;;;9.50;99.90;;;;;;4986799;28;20443;-88
2021/11/15 08:26:13;;;;;;;16.70;12.43;;;9.40;99.90;;;;;;4988433;28;20478;-88
2021/11/15 08:28:40;;;;;;;18.00;12.10;;;9.30;99.90;;;;;;4982183;28;20455;-90
2021/11/15 08:31:09;;;;;;;17.80;13.40;;;9.40;99.90;;;;;;4989438;28;20847;-90
2021/11/15 08:33:36;;;;;;;18.80;12.27;;;9.50;99.90;;;;;;4985357;28;20463;-89
2021/11/15 08:36:08;;;;;;;16.67;12.10;;;9.50;99.90;;;;;;4983099;28;20452;-89
2021/11/15 08:38:52;;;;;;;15.67;11.43;;;9.50;99.90;;;;;;4988092;28;20527;-88
2021/11/15 08:41:22;;;;;;;19.37;12.63;;;9.40;99.90;;;;;;4976050;28;20850;-88
2021/11/15 08:43:50;;;;;;;18.27;14.37;;;9.40;99.90;;;;;;4985899;28;20468;-86
2021/11/15 08:46:19;;;;;;;17.13;12.80;;;9.40;99.90;;;;;;4985798;28;20445;-87
2021/11/15 08:48:48;;;;;;;16.40;12.60;;;9.50;99.90;;;;;;4965850;28;20453;-86
2021/11/15 08:51:17;;;;;;;16.07;12.10;;;9.40;99.90;;;;;;4981370;28;20448;-88
2021/11/15 08:53:45;;;;;;;18.97;14.37;;;9.40;99.90;;;;;;4992220;28;20471;-87
2021/11/15 08:56:12;;;;;;;16.50;12.50;;;9.40;99.90;;;;;;4983411;28;20455;-88
2021/11/15 08:58:39;;;;;;;19.37;12.30;;;9.40;99.90;;;;;;4991545;28;20495;-87
2021/11/15 09:01:06;;;;;;;18.47;13.03;;;9.50;99.90;;;;;;4980732;28;20448;-87
2021/11/15 09:03:35;;;;;;;17.93;11.80;;;9.50;99.90;;;;;;4983842;28;20987;-87
2021/11/15 09:06:02;;;;;;;15.67;11.60;;;9.50;99.90;;;;;;4989338;28;20435;-87
2021/11/15 09:08:30;;;;;;;18.83;12.80;;;9.50;99.90;;;;;;4980195;28;20447;-88
2021/11/15 09:10:57;;;;;;;18.33;13.30;;;9.60;99.90;;;;;;4980924;28;20454;-87
2021/11/15 09:13:23;;;;;;;15.63;11.87;;;9.40;99.90;;;;;;4984605;28;20444;-88
2021/11/15 09:15:51;;;;;;;19.90;13.83;;;9.40;99.90;;;;;;4988189;28;20450;-86
2021/11/15 09:18:18;;;;;;;16.13;13.20;;;9.30;99.90;;;;;;4987269;28;20547;-90
2021/11/15 09:20:44;;;;;;;20.07;12.77;;;9.20;99.90;;;;;;4963215;28;20457;-86
2021/11/15 09:23:11;;;;;;;19.30;13.70;;;9.10;99.90;;;;;;4969053;28;20952;-87
2021/11/15 09:25:41;;;;;;;22.40;12.43;;;9.10;99.90;;;;;;4972867;28;20443;-86
2021/11/15 09:28:08;;;;;;;14.90;11.63;;;9.20;99.90;;;;;;4988746;28;20436;-86
2021/11/15 09:30:37;;;;;;;19.00;12.00;;;9.20;99.90;;;;;;4985091;28;20459;-87
2021/11/15 09:33:04;;;;;;;17.17;12.60;;;9.30;99.90;;;;;;4986856;28;20454;-88
2021/11/15 09:35:31;;;;;;;17.50;13.20;;;9.40;99.90;;;;;;4990230;28;20450;-87
2021/11/15 09:37:57;;;;;;;21.83;13.70;;;9.50;99.90;;;;;;4988372;28;20580;-87
2021/11/15 09:40:24;;;;;;;15.20;12.40;;;9.60;99.90;;;;;;4974324;28;20460;-88
2021/11/15 09:42:55;;;;;;;17.77;13.10;;;9.50;99.90;;;;;;4974931;28;20449;-87
2021/11/15 09:45:22;;;;;;;18.00;12.30;;;9.50;99.90;;;;;;4980065;28;20471;-88
2021/11/15 09:47:49;;;;;;;20.13;14.83;;;9.50;99.90;;;;;;4974144;28;20443;-87
2021/11/15 09:50:18;;;;;;;16.90;12.47;;;9.50;99.90;;;;;;4984563;28;20443;-88
2021/11/15 09:52:45;;;;;;;17.07;13.67;;;9.50;99.90;;;;;;4985791;28;20479;-87
2021/11/15 09:55:12;;;;;;;16.63;11.97;;;9.60;99.90;;;;;;4988229;28;20472;-87
2021/11/15 09:57:41;;;;;;;20.40;13.50;;;9.60;99.90;;;;;;4998785;28;20524;-85
2021/11/15 10:00:12;;;;;;;18.80;13.73;;;9.60;99.90;;;;;;4988095;28;20852;-86
2021/11/15 10:02:39;;;;;;;15.33;12.83;;;9.60;99.90;;;;;;4987492;28;20455;-86
2021/11/15 10:05:08;;;;;;;18.30;12.37;;;9.70;99.90;;;;;;4987208;28;20559;-87
2021/11/15 10:07:43;;;;;;;17.20;13.00;;;9.60;99.90;;;;;;4986587;28;20471;-87
2021/11/15 10:10:38;;;;;;;17.40;12.83;;;9.70;99.90;;;;;;4994656;28;20903;-86
2021/11/15 10:13:21;;;;;;;17.00;12.37;;;9.60;99.90;;;;;;4986772;28;20517;-87
2021/11/15 10:15:57;;;;;;;18.53;13.67;;;9.50;99.90;;;;;;4987176;28;20452;-87
2021/11/15 10:18:46;;;;;;;17.83;14.30;;;9.30;99.90;;;;;;4972787;28;20484;-88
2021/11/15 10:21:17;;;;;;;17.70;13.67;;;9.30;99.90;;;;;;4976572;28;20479;-88
2021/11/15 10:23:49;;;;;;;17.70;12.80;;;9.30;99.90;;;;;;4985584;28;20472;-88
2021/11/15 10:26:22;;;;;;;21.60;14.30;;;9.30;99.90;;;;;;4977351;28;20455;-88
2021/11/15 10:28:56;;;;;;;18.87;13.77;;;9.40;99.90;;;;;;4986480;28;20440;-87
2021/11/15 10:31:33;;;;;;;15.30;12.53;;;9.60;99.90;;;;;;4978028;28;20455;-88
2021/11/15 10:34:00;;;;;;;19.10;15.00;;;9.70;99.90;;;;;;4978766;28;20476;-87
2021/11/15 10:36:52;;;;;;;22.03;13.10;;;9.80;99.90;;;;;;4984106;28;20459;-87
2021/11/15 10:39:21;;;;;;;18.03;13.80;;;9.90;99.90;;;;;;4981801;28;20480;-87
2021/11/15 10:42:05;;;;;;;18.53;12.70;;;10.00;99.90;;;;;;4987947;28;20448;-86
2021/11/15 10:44:33;;;;;;;15.43;12.17;;;10.00;99.90;;;;;;4985456;28;20842;-87
2021/11/15 10:47:01;;;;;;;19.00;13.20;;;10.10;99.90;;;;;;4979309;28;21318;-87
2021/11/15 10:49:29;;;;;;;19.93;14.13;;;10.20;99.90;;;;;;4983185;28;20451;-87
2021/11/15 10:51:59;;;;;;;15.20;13.00;;;10.20;99.90;;;;;;4986806;28;20512;-87
2021/11/15 10:54:48;;;;;;;19.40;13.97;;;10.10;99.90;;;;;;4991172;28;20863;-87
2021/11/15 10:57:34;;;;;;;21.23;15.50;;;10.10;99.90;;;;;;4994224;28;20903;-87
2021/11/15 11:00:30;;;;;;;24.00;15.20;;;10.00;99.90;;;;;;4982696;28;20447;-87
2021/11/15 11:03:16;;;;;;;19.83;14.00;;;9.90;99.90;;;;;;4993307;28;20986;-87
2021/11/15 11:05:44;;;;;;;21.47;15.23;;;9.60;99.90;;;;;;4982245;28;20479;-87
2021/11/15 11:08:14;;;;;;;21.10;17.20;;;9.50;99.90;;;;;;4976835;28;20453;-86
2021/11/15 11:10:53;;;;;;;20.10;16.47;;;9.40;99.90;;;;;;4980950;28;20444;-87
2021/11/15 11:13:24;;;;;;;30.07;24.40;;;9.60;99.90;;;;;;4980689;28;20975;-89
2021/11/15 11:15:53;;;;;;;19.77;15.70;;;9.60;99.90;;;;;;4982079;28;20455;-87
2021/11/15 11:18:31;;;;;;;18.50;15.37;;;9.50;99.90;;;;;;4980660;28;20480;-87
2021/11/15 11:26:57;;;;;;;17.93;14.27;;;9.60;99.90;;;;;;4995461;28;20431;-85
2021/11/15 11:29:31;;;;;;;18.50;13.83;;;9.50;99.90;;;;;;4987982;28;20458;-87
2021/11/15 11:32:01;;;;;;;18.40;15.23;;;9.50;99.90;;;;;;4985708;28;20511;-88
2021/11/15 11:34:29;;;;;;;22.60;16.50;;;9.50;99.90;;;;;;4986830;28;20468;-87
2021/11/15 11:36:56;;;;;;;21.20;15.77;;;9.70;99.90;;;;;;4982794;28;20851;-87
2021/11/15 11:39:25;;;;;;;20.20;16.07;;;9.70;99.90;;;;;;4985959;28;20494;-87
2021/11/15 11:41:56;;;;;;;21.60;15.60;;;9.70;99.90;;;;;;5001614;28;20447;-86
2021/11/15 11:44:25;;;;;;;23.13;15.90;;;9.80;99.90;;;;;;4996436;28;20500;-87
2021/11/15 11:46:53;;;;;;;20.10;15.53;;;9.80;99.90;;;;;;4994804;28;20454;-87
2021/11/15 11:49:24;;;;;;;19.43;14.70;;;9.80;99.90;;;;;;4981380;28;20467;-88
2021/11/15 11:51:57;;;;;;;18.77;13.97;;;9.90;99.90;;;;;;4980773;28;20816;-87
2021/11/15 11:54:27;;;;;;;16.93;13.00;;;10.00;99.90;;;;;;4991926;28;21120;-87
2021/11/15 11:57:03;;;;;;;19.60;14.40;;;10.00;99.90;;;;;;4979694;28;20566;-87
2021/11/15 11:59:31;;;;;;;18.63;14.17;;;9.90;99.90;;;;;;4982701;28;20489;-85
2021/11/15 12:01:59;;;;;;;18.03;14.13;;;9.90;99.90;;;;;;4981600;28;20856;-87
2021/11/15 12:04:26;;;;;;;18.17;13.90;;;9.80;99.90;;;;;;4983089;28;20562;-86
2021/11/15 12:06:55;;;;;;;20.90;13.73;;;9.80;99.90;;;;;;4984741;28;20487;-87
2021/11/15 12:09:23;;;;;;;18.33;14.60;;;9.90;99.90;;;;;;4986514;28;20452;-84
2021/11/15 12:12:00;;;;;;;18.80;14.10;;;9.80;99.90;;;;;;4987764;28;20447;-85
2021/11/15 12:14:33;;;;;;;23.40;18.30;;;9.70;99.90;;;;;;4988454;28;20498;-88
2021/11/15 12:17:04;;;;;;;18.40;14.80;;;9.70;99.90;;;;;;4982963;28;20510;-88
2021/11/15 12:20:15;;;;;;;19.30;15.07;;;9.60;99.90;;;;;;4985467;28;20489;-90
2021/11/15 12:22:46;;;;;;;20.50;15.20;;;9.60;99.90;;;;;;4980673;28;20451;-85
2021/11/15 12:25:16;;;;;;;19.50;15.00;;;9.60;99.90;;;;;;4995204;28;20802;-85
2021/11/15 12:27:49;;;;;;;22.60;15.33;;;9.60;99.90;;;;;;4988449;28;20459;-84
2021/11/15 12:30:19;;;;;;;21.60;15.57;;;9.70;99.90;;;;;;4982506;28;20446;-89
2021/11/15 12:33:21;;;;;;;19.90;15.93;;;9.60;99.90;;;;;;4980843;28;20447;-88
2021/11/15 12:35:58;;;;;;;20.27;16.43;;;9.60;99.90;;;;;;5034725;22;20471;-87
2021/11/15 12:38:42;;;;;;;20.20;15.87;;;9.50;99.90;;;;;;5003676;28;20493;-87
2021/11/15 12:41:40;;;;;;;20.80;14.70;;;9.50;99.90;;;;;;5002461;28;20538;-87
2021/11/15 12:44:33;;;;;;;19.90;16.10;;;9.40;99.90;;;;;;5088482;28;20538;-89
2021/11/15 12:47:15;;;;;;;18.07;15.70;;;9.30;99.90;;;;;;5075731;28;20471;-87
2021/11/15 12:49:45;;;;;;;20.83;16.23;;;9.30;99.90;;;;;;5078645;28;20451;-87
2021/11/15 12:52:36;;;;;;;18.13;14.47;;;9.40;99.90;;;;;;5077339;28;20742;-88
2021/11/15 12:55:08;;;;;;;21.10;16.00;;;9.40;99.90;;;;;;5076408;28;20552;-88
2021/11/15 12:57:48;;;;;;;19.50;15.10;;;9.40;99.90;;;;;;5076092;28;20443;-89